createdAt,value
2023-04-02T00:02:31.261Z,100.00
2023-04-02T00:07:38.756Z,100.00
2023-04-02T00:13:02.794Z,100.00
2023-04-02T00:18:10.211Z,100.00
2023-04-02T00:23:18.159Z,100.00
2023-04-02T00:28:28.371Z,100.00
2023-04-02T00:33:35.106Z,100.00
2023-04-02T00:38:44.300Z,100.00
2023-04-02T00:43:54.929Z,100.00
2023-04-02T00:49:05.893Z,100.00
2023-04-02T00:54:16.029Z,100.00
2023-04-02T00:59:30.406Z,100.00
2023-04-02T01:04:37.626Z,100.00
2023-04-02T01:09:57.738Z,100.00
2023-04-02T01:15:14.471Z,100.00
2023-04-02T01:20:55.134Z,100.00
2023-04-02T01:26:11.912Z,100.00
2023-04-02T01:31:23.491Z,100.00
2023-04-02T01:36:36.455Z,100.00
2023-04-02T01:41:48.377Z,100.00
2023-04-02T01:46:59.096Z,100.00
2023-04-02T01:52:06.692Z,100.00
2023-04-02T01:57:13.098Z,100.00
2023-04-02T02:02:23.202Z,100.00
2023-04-02T02:07:29.272Z,100.00
2023-04-02T02:12:35.387Z,100.00
2023-04-02T02:17:43.428Z,100.00
2023-04-02T02:22:52.699Z,100.00
2023-04-02T02:28:06.026Z,100.00
2023-04-02T02:33:21.108Z,100.00
2023-04-02T02:38:39.699Z,100.00
2023-04-02T02:44:02.717Z,100.00
2023-04-02T02:49:17.808Z,100.00
2023-04-02T02:54:24.731Z,100.00
2023-04-02T02:59:35.301Z,100.00
2023-04-02T03:04:48.466Z,100.00
2023-04-02T03:10:04.397Z,100.00
2023-04-02T03:15:21.585Z,100.00
2023-04-02T03:20:39.565Z,100.00
2023-04-02T03:25:52.095Z,100.00
2023-04-02T03:31:02.514Z,100.00
2023-04-02T03:36:23.680Z,100.00
2023-04-02T03:41:35.371Z,100.00
2023-04-02T03:46:49.042Z,100.00
2023-04-02T03:52:02.199Z,100.00
2023-04-02T03:57:15.276Z,100.00
2023-04-02T04:02:41.684Z,100.00
2023-04-02T04:07:53.315Z,100.00
2023-04-02T04:13:07.002Z,100.00
2023-04-02T04:18:21.824Z,100.00
2023-04-02T04:23:36.137Z,100.00
2023-04-02T04:28:50.434Z,100.00
2023-04-02T04:34:03.349Z,100.00
2023-04-02T04:39:21.869Z,100.00
2023-04-02T04:44:37.528Z,100.00
2023-04-02T04:49:48.469Z,100.00
2023-04-02T04:54:58.428Z,100.00
2023-04-02T05:00:18.909Z,100.00
2023-04-02T05:05:31.257Z,100.00
2023-04-02T05:10:54.016Z,100.00
2023-04-02T05:16:08.192Z,100.00
2023-04-02T05:21:24.214Z,100.00
2023-04-02T05:26:37.007Z,100.00
2023-04-02T05:31:49.048Z,100.00
2023-04-02T05:36:58.156Z,100.00
2023-04-02T05:42:08.706Z,100.00
2023-04-02T05:47:33.034Z,100.00
2023-04-02T05:52:47.046Z,100.00
2023-04-02T05:58:21.182Z,100.00
2023-04-02T06:03:32.673Z,100.00
2023-04-02T06:08:43.767Z,100.00
2023-04-02T06:13:52.877Z,100.00
2023-04-02T06:19:01.721Z,100.00
2023-04-02T06:24:09.855Z,100.00
2023-04-02T06:29:25.193Z,100.00
2023-04-02T06:34:37.300Z,100.00
2023-04-02T06:39:46.347Z,100.00
2023-04-02T06:44:58.534Z,100.00
2023-04-02T06:50:33.997Z,100.00
2023-04-02T06:55:48.076Z,100.00
2023-04-02T07:01:03.402Z,100.00
2023-04-02T07:06:19.394Z,100.00
2023-04-02T07:11:27.382Z,100.00
2023-04-02T07:16:40.168Z,100.00
2023-04-02T07:21:47.651Z,100.00
2023-04-02T07:26:54.190Z,100.00
2023-04-02T07:32:01.938Z,100.00
2023-04-02T07:37:07.813Z,100.00
2023-04-02T07:42:13.325Z,100.00
2023-04-02T07:47:21.049Z,100.00
2023-04-02T07:52:26.427Z,100.00
2023-04-02T07:57:32.782Z,100.00
2023-04-02T08:02:46.466Z,100.00
2023-04-02T08:07:58.149Z,100.00
2023-04-02T08:13:03.416Z,100.00
2023-04-02T08:18:20.291Z,100.00
2023-04-02T08:23:26.339Z,100.00
2023-04-02T08:28:32.054Z,100.00
2023-04-02T08:33:40.066Z,100.00
2023-04-02T08:38:49.337Z,100.00
2023-04-02T08:44:13.425Z,100.00
2023-04-02T08:49:27.230Z,100.00
2023-04-02T08:54:38.966Z,100.00
2023-04-02T08:59:50.369Z,100.00
2023-04-02T09:05:00.373Z,100.00
2023-04-02T09:10:06.050Z,100.00
2023-04-02T09:15:24.914Z,100.00
2023-04-02T09:20:32.945Z,100.00
2023-04-02T09:25:38.532Z,100.00
2023-04-02T09:31:03.878Z,100.00
2023-04-02T09:36:22.258Z,100.00
2023-04-02T09:41:32.410Z,100.00
2023-04-02T09:46:37.817Z,100.00
2023-04-02T09:51:45.970Z,100.00
2023-04-02T09:57:09.099Z,100.00
2023-04-02T10:02:27.810Z,100.00
2023-04-02T10:07:41.001Z,100.00
2023-04-02T10:12:49.565Z,100.00
2023-04-02T10:18:00.809Z,100.00
2023-04-02T10:23:08.905Z,100.00
2023-04-02T10:28:21.946Z,100.00
2023-04-02T10:33:33.445Z,100.00
2023-04-02T10:38:55.826Z,100.00
2023-04-02T10:44:20.201Z,100.00
2023-04-02T10:49:37.975Z,100.00
2023-04-02T10:54:51.761Z,100.00
2023-04-02T11:00:02.025Z,100.00
2023-04-02T11:05:16.889Z,100.00
2023-04-02T11:10:26.287Z,100.00
2023-04-02T11:15:33.768Z,100.00
2023-04-02T11:21:03.344Z,100.00
2023-04-02T11:26:50.433Z,100.00
2023-04-02T11:32:18.157Z,100.00
2023-04-02T11:37:40.443Z,100.00
2023-04-02T11:42:53.747Z,100.00
2023-04-02T11:48:35.157Z,100.00
2023-04-02T11:53:45.335Z,100.00
2023-04-02T11:59:00.951Z,100.00
2023-04-02T12:04:39.435Z,100.00
2023-04-02T12:09:54.013Z,99.85
2023-04-02T12:15:00.914Z,97.85
2023-04-02T12:20:22.394Z,96.85
2023-04-02T12:25:34.763Z,97.80
2023-04-02T12:30:45.332Z,96.84
2023-04-02T12:35:54.601Z,95.84
2023-04-02T12:41:06.801Z,95.17
2023-04-02T12:46:12.565Z,94.42
2023-04-02T12:51:19.434Z,93.69
2023-04-02T12:56:29.493Z,92.49
2023-04-02T13:01:36.105Z,92.96
2023-04-02T13:06:50.327Z,93.96
2023-04-02T13:11:58.331Z,94.89
2023-04-02T13:17:03.526Z,94.36
2023-04-02T13:22:36.162Z,94.81
2023-04-02T13:27:41.391Z,95.19
2023-04-02T13:32:46.573Z,94.14
2023-04-02T13:37:54.545Z,94.59
2023-04-02T13:43:02.190Z,93.82
2023-04-02T13:48:10.582Z,93.50
2023-04-02T13:53:27.091Z,95.26
2023-04-02T13:58:32.475Z,93.93
2023-04-02T14:03:38.072Z,93.53
2023-04-02T14:09:00.574Z,92.63
2023-04-02T14:14:36.514Z,92.80
2023-04-02T14:20:05.600Z,94.06
2023-04-02T14:25:22.210Z,94.09
2023-04-02T14:30:37.355Z,93.65
2023-04-02T14:35:50.162Z,92.34
2023-04-02T14:41:05.288Z,93.24
2023-04-02T14:46:11.927Z,92.49
2023-04-02T14:51:26.516Z,91.58
2023-04-02T14:56:36.776Z,91.71
2023-04-02T15:01:47.699Z,92.16
2023-04-02T15:06:55.836Z,92.24
2023-04-02T15:12:12.590Z,91.78
2023-04-02T15:17:20.617Z,90.77
2023-04-02T15:22:38.691Z,92.24
2023-04-02T15:28:04.785Z,91.85
2023-04-02T15:33:41.230Z,91.09
2023-04-02T15:38:50.967Z,91.06
2023-04-02T15:44:09.586Z,91.65
2023-04-02T15:49:29.619Z,90.93
2023-04-02T15:55:03.101Z,91.33
2023-04-02T16:00:32.077Z,90.51
2023-04-02T16:05:45.484Z,91.66
2023-04-02T16:10:51.212Z,89.48
2023-04-02T16:16:06.548Z,89.84
2023-04-02T16:21:19.745Z,89.94
2023-04-02T16:26:44.985Z,89.88
2023-04-02T16:32:02.207Z,90.43
2023-04-02T16:37:17.455Z,91.47
2023-04-02T16:42:35.871Z,89.28
2023-04-02T16:48:04.848Z,89.45
2023-04-02T16:53:27.074Z,89.41
2023-04-02T16:58:44.724Z,90.67
2023-04-02T17:04:12.672Z,91.50
2023-04-02T17:09:22.235Z,90.79
2023-04-02T17:14:33.875Z,90.55
2023-04-02T17:19:43.876Z,91.49
2023-04-02T17:24:57.798Z,91.57
2023-04-02T17:30:07.515Z,91.52
2023-04-02T17:35:32.368Z,92.17
2023-04-02T17:40:49.550Z,91.96
2023-04-02T17:45:57.544Z,95.56
2023-04-02T17:51:16.311Z,93.72
2023-04-02T17:56:33.285Z,92.39
2023-04-02T18:01:47.184Z,93.42
2023-04-02T18:07:12.631Z,92.99
2023-04-02T18:12:36.499Z,92.96
2023-04-02T18:17:53.255Z,92.38
2023-04-02T18:23:09.359Z,92.36
2023-04-02T18:28:29.946Z,93.45
2023-04-02T18:34:01.800Z,92.89
2023-04-02T18:39:17.073Z,92.90
2023-04-02T18:44:39.102Z,93.52
2023-04-02T18:49:52.146Z,93.25
2023-04-02T18:55:07.369Z,94.04
2023-04-02T19:00:26.942Z,94.38
2023-04-02T19:05:45.082Z,93.82
2023-04-02T19:10:59.480Z,94.10
2023-04-02T19:16:26.886Z,96.57
2023-04-02T19:21:42.391Z,95.72
2023-04-02T19:26:57.397Z,96.69
2023-04-02T19:32:13.394Z,96.83
2023-04-02T19:37:26.500Z,97.14
2023-04-02T19:42:46.638Z,96.58
2023-04-02T19:47:52.368Z,96.28
2023-04-02T19:52:57.973Z,97.84
2023-04-02T19:58:17.688Z,97.02
2023-04-02T20:03:26.204Z,97.10
2023-04-02T20:08:32.102Z,96.89
2023-04-02T20:13:40.362Z,98.08
2023-04-02T20:18:46.333Z,97.51
2023-04-02T20:23:55.396Z,98.20
2023-04-02T20:29:03.269Z,96.70
2023-04-02T20:34:09.715Z,96.62
2023-04-02T20:39:19.480Z,96.67
2023-04-02T20:44:27.239Z,95.74
2023-04-02T20:49:32.464Z,95.63
2023-04-02T20:54:37.627Z,94.90
2023-04-02T20:59:45.279Z,96.08
2023-04-02T21:04:50.440Z,93.99
2023-04-02T21:09:56.912Z,93.65
2023-04-02T21:15:04.772Z,93.24
2023-04-02T21:20:12.499Z,93.36
2023-04-02T21:25:17.912Z,92.57
2023-04-02T21:30:25.754Z,92.91
2023-04-02T21:35:30.810Z,90.85
2023-04-02T21:40:36.004Z,90.50
2023-04-02T21:45:44.255Z,91.24
2023-04-02T21:50:49.304Z,90.67
2023-04-02T21:56:03.825Z,90.07
2023-04-02T22:01:23.797Z,89.52
2023-04-02T22:06:34.441Z,89.49
2023-04-02T22:11:41.787Z,88.84
2023-04-02T22:16:50.742Z,89.28
2023-04-02T22:21:56.710Z,89.78
2023-04-02T22:27:01.938Z,89.33
2023-04-02T22:32:09.784Z,88.45
2023-04-02T22:37:15.088Z,89.21
2023-04-02T22:42:20.111Z,88.50
2023-04-02T22:47:28.078Z,87.03
2023-04-02T22:52:33.246Z,86.74
2023-04-02T22:57:38.305Z,85.35
2023-04-02T23:02:46.212Z,83.88
2023-04-02T23:07:53.568Z,83.16
2023-04-02T23:12:58.646Z,82.87
2023-04-02T23:18:06.596Z,83.75
2023-04-02T23:23:11.724Z,83.98
2023-04-02T23:28:17.138Z,83.17
2023-04-02T23:33:25.850Z,83.25
2023-04-02T23:38:32.239Z,83.22
2023-04-02T23:43:37.338Z,82.96
2023-04-02T23:48:46.126Z,83.12
2023-04-02T23:53:51.975Z,83.17
2023-04-02T23:58:57.640Z,82.88
